Time;durP1;ratioP1;P1;durP2;ratioP2;P2;SDS_P1;SDS_P2;PMS_P1;PMS_P2;Temp;Humidity;BMP_temperature;BMP_pressure;BME280_temperature;BME280_humidity;BME280_pressure;Samples;Min_cycle;Max_cycle;Signal;HPM_P1;HPM_P2
2022/08/19 00:00:27;;;;;;;4.57;3.47;;;;;;;-140.72;100.00;52439.56;4951961;28;20026;-68
2022/08/19 00:02:53;;;;;;;7.13;4.18;;;;;;;-140.72;100.00;52498.41;4952145;28;20034;-70
2022/08/19 00:05:20;;;;;;;5.13;2.85;;;;;;;-140.72;100.00;52488.25;4948414;28;20042;-70
2022/08/19 00:07:47;;;;;;;4.32;3.30;;;;;;;-140.72;100.00;52496.38;4950298;28;20023;-68
2022/08/19 00:10:14;;;;;;;5.00;3.45;;;;;;;-140.72;100.00;52514.63;4951274;28;20031;-69
2022/08/19 00:12:40;;;;;;;4.72;3.53;;;;;;;-140.72;100.00;52508.56;4952730;28;20035;-68
2022/08/19 00:15:11;;;;;;;8.55;3.40;;;;;;;-140.72;100.00;52480.16;4951382;28;20399;-69
2022/08/19 00:17:37;;;;;;;5.78;3.30;;;;;;;-140.72;100.00;52573.50;4950251;28;20118;-68
2022/08/19 00:20:03;;;;;;;6.40;3.25;;;;;;;-140.72;100.00;52512.59;4951830;28;20031;-70
2022/08/19 00:22:28;;;;;;;4.07;2.97;;;;;;;-140.72;100.00;52496.38;4950754;28;20027;-68
2022/08/19 00:24:54;;;;;;;4.10;2.90;;;;;;;-140.72;100.00;52508.56;4952371;28;20045;-68
2022/08/19 00:27:19;;;;;;;4.97;2.58;;;;;;;-140.72;100.00;52470.00;4951598;28;20029;-69
2022/08/19 00:29:45;;;;;;;5.03;3.20;;;;;;;-140.72;100.00;52502.47;4951411;28;20043;-69
2022/08/19 00:32:10;;;;;;;3.47;2.78;;;;;;;-140.72;100.00;52494.34;4952568;28;20039;-69
2022/08/19 00:34:35;;;;;;;4.47;3.15;;;;;;;-140.72;100.00;52539.00;4949675;28;20517;-71
2022/08/19 00:37:01;;;;;;;3.90;2.85;;;;;;;-140.72;100.00;52528.84;4950846;28;20047;-69
2022/08/19 00:39:26;;;;;;;4.10;2.70;;;;;;;-140.72;100.00;52555.22;4952314;28;20066;-70
2022/08/19 00:41:51;;;;;;;6.75;3.88;;;;;;;-140.72;100.00;52500.44;4951573;28;20061;-69
2022/08/19 00:44:23;;;;;;;6.05;3.50;;;;;;;-140.72;100.00;52573.50;4951552;28;20027;-69
2022/08/19 00:46:51;;;;;;;6.05;4.25;;;;;;;-140.72;100.00;52514.63;4951953;28;20028;-69
2022/08/19 00:49:27;;;;;;;4.25;3.17;;;;;;;-140.72;100.00;52522.75;4950708;28;20023;-69
2022/08/19 00:52:01;;;;;;;6.65;4.20;;;;;;;-140.72;100.00;52518.69;4949883;28;20023;-70
2022/08/19 00:54:27;;;;;;;5.30;3.72;;;;;;;-140.72;100.00;52514.63;4950746;29;20028;-69
2022/08/19 00:56:52;;;;;;;5.45;3.60;;;;;;;-140.72;100.00;52569.44;4951105;28;20027;-69
2022/08/19 00:59:19;;;;;;;8.90;4.10;;;;;;;-140.72;100.00;52522.75;4951909;28;20109;-70
2022/08/19 01:01:46;;;;;;;5.05;3.10;;;;;;;-140.72;100.00;52536.97;4949704;28;20031;-70
2022/08/19 01:04:12;;;;;;;6.78;4.25;;;;;;;-140.72;100.00;52561.31;4951044;28;20101;-69
2022/08/19 01:06:40;;;;;;;5.75;4.03;;;;;;;-140.72;100.00;52482.16;4950643;28;20110;-69
2022/08/19 01:09:06;;;;;;;4.88;3.80;;;;;;;-140.72;100.00;52488.25;4951719;28;20388;-69
2022/08/19 01:11:41;;;;;;;5.22;3.80;;;;;;;-140.72;100.00;52512.59;4950612;28;20039;-69
2022/08/19 01:14:08;;;;;;;6.57;4.15;;;;;;;-140.72;100.00;52545.06;4950517;28;20431;-69
2022/08/19 01:16:34;;;;;;;4.97;3.90;;;;;;;-140.72;100.00;52532.91;4951323;28;20039;-69
2022/08/19 01:19:01;;;;;;;6.35;4.68;;;;;;;-140.72;100.00;52561.31;4951067;28;20050;-69
2022/08/19 01:21:46;;;;;;;8.35;4.43;;;;;;;-140.72;100.00;52524.78;4951355;28;20465;-69
2022/08/19 01:24:11;;;;;;;6.50;4.30;;;;;;;-140.72;100.00;52510.59;4950102;29;20054;-69
2022/08/19 01:26:43;;;;;;;5.03;3.45;;;;;;;-140.72;100.00;52526.81;4950949;28;20040;-69
2022/08/19 01:29:10;;;;;;;5.40;3.78;;;;;;;-140.72;100.00;52514.63;4951078;28;20034;-69
2022/08/19 01:31:36;;;;;;;5.53;3.85;;;;;;;-140.72;100.00;52549.13;4950183;28;20042;-69
2022/08/19 01:34:03;;;;;;;4.43;3.17;;;;;;;-140.72;100.00;52488.25;4948938;28;20472;-70
2022/08/19 01:36:35;;;;;;;3.92;3.25;;;;;;;-140.72;100.00;52518.69;4950420;28;20031;-69
2022/08/19 01:39:06;;;;;;;4.63;3.33;;;;;;;-140.72;100.00;52496.38;4948730;29;20408;-71
2022/08/19 01:41:32;;;;;;;7.40;3.22;;;;;;;-140.72;100.00;52543.03;4951585;28;20038;-69
2022/08/19 01:43:57;;;;;;;4.13;3.17;;;;;;;-140.72;100.00;52532.91;4945824;29;20031;-69
2022/08/19 01:46:23;;;;;;;4.15;3.35;;;;;;;-140.72;100.00;52512.59;4950509;28;20023;-70
2022/08/19 01:48:48;;;;;;;5.00;3.20;;;;;;;-140.72;100.00;52536.97;4957291;28;20455;-69
2022/08/19 01:51:14;;;;;;;4.72;2.75;;;;;;;-140.72;100.00;52524.78;4957498;28;20121;-68
2022/08/19 01:53:40;;;;;;;4.30;3.38;;;;;;;-140.72;100.00;52536.97;4956653;28;20162;-69
2022/08/19 01:56:07;;;;;;;5.38;3.47;;;;;;;-140.72;100.00;52569.44;4957364;28;20027;-69
2022/08/19 01:58:38;;;;;;;5.20;3.65;;;;;;;-140.72;100.00;52551.16;4956401;28;20031;-68
2022/08/19 02:01:04;;;;;;;4.55;4.05;;;;;;;-140.72;100.00;52541.03;4956100;28;20035;-69
2022/08/19 02:03:30;;;;;;;4.97;3.10;;;;;;;-140.72;100.00;52545.06;4957090;28;20030;-68
2022/08/19 02:06:00;;;;;;;4.13;3.47;;;;;;;-140.72;100.00;52518.69;4957890;28;20444;-71
2022/08/19 02:08:29;;;;;;;4.57;3.67;;;;;;;-140.72;100.00;52536.97;4956259;28;20038;-68
2022/08/19 02:10:54;;;;;;;5.50;3.13;;;;;;;-140.72;100.00;52573.50;4957000;28;20376;-70
2022/08/19 02:13:20;;;;;;;5.07;3.72;;;;;;;-140.72;100.00;52492.31;4955575;28;20313;-69
2022/08/19 02:15:45;;;;;;;8.15;3.17;;;;;;;-140.72;100.00;52539.00;4957258;28;20492;-69
2022/08/19 02:18:12;;;;;;;5.60;3.38;;;;;;;-140.72;100.00;52547.09;4957095;28;20023;-69
2022/08/19 02:20:38;;;;;;;4.20;3.08;;;;;;;-140.72;100.00;52522.75;4956762;28;20031;-69
2022/08/19 02:23:06;;;;;;;5.60;3.90;;;;;;;-140.72;100.00;52571.47;4957336;28;20031;-70
2022/08/19 02:25:31;;;;;;;4.40;3.45;;;;;;;-140.72;100.00;52545.06;4957392;28;20547;-68
2022/08/19 02:27:56;;;;;;;5.35;3.90;;;;;;;-140.72;100.00;52498.41;4956465;28;20071;-70
2022/08/19 02:30:22;;;;;;;7.97;4.35;;;;;;;-140.72;100.00;52559.28;4956598;28;20102;-68
2022/08/19 02:32:48;;;;;;;5.63;4.25;;;;;;;-140.72;100.00;52530.88;4956693;28;20134;-68
2022/08/19 02:35:14;;;;;;;7.00;4.45;;;;;;;-140.72;100.00;52518.69;4954696;28;20496;-68
2022/08/19 02:40:27;;;;;;;5.47;3.97;;;;;;;-140.72;100.00;52543.03;4955783;28;20603;-69
2022/08/19 02:42:52;;;;;;;6.30;4.82;;;;;;;-140.72;100.00;52526.81;4955815;28;20039;-69
2022/08/19 02:45:18;;;;;;;10.52;5.97;;;;;;;-140.72;100.00;52545.06;4957244;28;20030;-69
2022/08/19 02:47:43;;;;;;;8.57;5.15;;;;;;;-140.72;100.00;52571.47;4956878;28;20026;-68
2022/08/19 02:50:09;;;;;;;10.00;6.75;;;;;;;-140.72;100.00;52581.59;4955794;28;20027;-68
2022/08/19 02:52:35;;;;;;;8.10;6.22;;;;;;;-140.72;100.00;52577.53;4957164;28;20508;-70
2022/08/19 02:55:01;;;;;;;8.68;6.60;;;;;;;-140.72;100.00;52532.91;4957293;28;20126;-68
2022/08/19 02:57:26;;;;;;;8.90;6.13;;;;;;;-140.72;100.00;52528.84;4955796;28;20023;-70
2022/08/19 02:59:53;;;;;;;7.40;4.57;;;;;;;-140.72;100.00;52551.16;4953430;28;20042;-68
2022/08/19 03:02:19;;;;;;;9.88;6.25;;;;;;;-140.72;100.00;52545.06;4953009;28;20395;-69
2022/08/19 03:04:44;;;;;;;10.60;7.75;;;;;;;-140.72;100.00;52567.41;4951527;28;20035;-68
2022/08/19 03:07:14;;;;;;;10.30;7.28;;;;;;;-140.72;100.00;52557.25;4953665;28;20428;-68
2022/08/19 03:09:39;;;;;;;12.02;8.38;;;;;;;-140.72;100.00;52534.94;4952637;28;20042;-69
2022/08/19 03:12:05;;;;;;;11.55;8.13;;;;;;;-140.72;100.00;52543.03;4952988;28;20396;-68
2022/08/19 03:14:31;;;;;;;10.38;7.78;;;;;;;-140.72;100.00;52490.28;4953490;28;20030;-68
2022/08/19 03:16:57;;;;;;;9.23;7.22;;;;;;;-140.72;100.00;52593.78;4953239;28;20023;-68
2022/08/19 03:19:23;;;;;;;13.13;7.25;;;;;;;-140.72;100.00;52543.03;4953289;28;20034;-69
2022/08/19 03:21:49;;;;;;;13.63;8.93;;;;;;;-140.72;100.00;52577.53;4953051;28;20063;-67
2022/08/19 03:24:15;;;;;;;12.65;8.25;;;;;;;-140.72;100.00;52565.38;4952400;28;20106;-68
2022/08/19 03:26:49;;;;;;;12.68;8.65;;;;;;;-140.72;100.00;52512.59;4954119;28;20039;-69
2022/08/19 03:29:16;;;;;;;10.40;6.78;;;;;;;-140.72;100.00;52545.06;4953409;28;20038;-68
2022/08/19 03:31:43;;;;;;;12.15;8.23;;;;;;;-140.72;100.00;52577.53;4951014;28;20041;-68
2022/08/19 03:34:11;;;;;;;10.98;7.97;;;;;;;-140.72;100.00;52545.06;4948803;28;20055;-68
2022/08/19 03:36:37;;;;;;;11.65;8.48;;;;;;;-140.72;100.00;52561.31;4953351;28;20055;-67
2022/08/19 03:39:03;;;;;;;12.13;8.20;;;;;;;-140.72;100.00;52569.44;4952313;28;20038;-67
2022/08/19 03:41:36;;;;;;;14.75;9.07;;;;;;;-140.72;100.00;52597.84;4953190;28;20027;-67
2022/08/19 03:44:02;;;;;;;9.93;7.07;;;;;;;-140.72;100.00;52569.44;4953355;28;20035;-68
2022/08/19 03:46:31;;;;;;;15.38;9.82;;;;;;;-140.72;100.00;52569.44;4951355;28;20035;-69
2022/08/19 03:49:00;;;;;;;12.93;8.70;;;;;;;-140.72;100.00;52561.31;4953360;28;20027;-68
2022/08/19 03:51:30;;;;;;;15.48;9.85;;;;;;;-140.72;100.00;52603.94;4952203;28;20130;-67
2022/08/19 03:53:57;;;;;;;12.98;9.18;;;;;;;-140.72;100.00;52567.41;4952394;28;20087;-67
2022/08/19 03:56:25;;;;;;;13.45;7.63;;;;;;;-140.72;100.00;52557.25;4952947;28;20114;-69
2022/08/19 03:58:52;;;;;;;15.43;8.65;;;;;;;-140.72;100.00;52565.38;4952155;28;20035;-68
2022/08/19 04:01:20;;;;;;;10.10;8.32;;;;;;;-140.72;100.00;52539.00;4952728;29;20051;-68
2022/08/19 04:03:46;;;;;;;16.00;9.65;;;;;;;-140.72;100.00;52601.91;4952701;28;20031;-68
2022/08/19 04:06:21;;;;;;;16.00;11.40;;;;;;;-140.72;100.00;52528.84;4951994;28;20451;-68
2022/08/19 04:08:50;;;;;;;20.90;12.60;;;;;;;-140.72;100.00;52530.88;4950195;28;20083;-67
2022/08/19 04:11:26;;;;;;;20.42;13.07;;;;;;;-140.72;100.00;52577.53;4952635;28;20039;-68
2022/08/19 04:13:53;;;;;;;19.60;11.98;;;;;;;-140.72;100.00;52539.00;4949910;29;20031;-67
2022/08/19 04:16:20;;;;;;;25.23;14.30;;;;;;;-140.72;100.00;52585.66;4952227;28;20031;-67
2022/08/19 04:18:47;;;;;;;24.15;14.18;;;;;;;-140.72;100.00;52549.13;4952289;28;20121;-68
2022/08/19 04:21:25;;;;;;;23.20;14.32;;;;;;;-140.72;100.00;52569.44;4951485;28;20030;-67
2022/08/19 04:23:52;;;;;;;25.27;16.30;;;;;;;-140.72;100.00;52518.69;4950340;28;20063;-68
2022/08/19 04:26:21;;;;;;;24.48;16.55;;;;;;;-140.72;100.00;52528.84;4951961;28;20030;-69
2022/08/19 04:28:46;;;;;;;28.63;17.90;;;;;;;-140.72;100.00;52563.34;4951549;28;20031;-67
2022/08/19 04:31:14;;;;;;;27.65;16.55;;;;;;;-140.72;100.00;52549.13;4951773;28;20031;-67
2022/08/19 04:33:40;;;;;;;28.45;18.10;;;;;;;-140.72;100.00;52528.84;4951833;28;20066;-68
2022/08/19 04:36:06;;;;;;;29.48;17.98;;;;;;;-140.72;100.00;52569.44;4950880;28;20130;-67
2022/08/19 04:38:31;;;;;;;27.60;15.70;;;;;;;-140.72;100.00;52559.28;4952300;28;20023;-67
2022/08/19 04:43:41;;;;;;;29.85;17.17;;;;;;;-140.72;100.00;52551.16;4951997;28;20097;-67
2022/08/19 04:46:10;;;;;;;28.25;16.13;;;;;;;-140.72;100.00;52543.03;4950452;28;20031;-67
2022/08/19 04:48:35;;;;;;;28.90;18.35;;;;;;;-140.72;100.00;52532.91;4950779;28;20058;-68
2022/08/19 04:51:05;;;;;;;30.88;18.50;;;;;;;-140.72;100.00;52563.34;4951910;28;20055;-68
2022/08/19 04:53:32;;;;;;;25.98;16.55;;;;;;;-140.72;100.00;52528.84;4952167;28;20106;-68
2022/08/19 04:55:59;;;;;;;31.60;17.75;;;;;;;-140.72;100.00;52565.38;4952112;28;20098;-69
2022/08/19 04:58:27;;;;;;;29.85;17.52;;;;;;;-140.72;100.00;52514.63;4952677;28;20038;-72
2022/08/19 05:00:53;;;;;;;36.22;16.77;;;;;;;-140.72;100.00;52492.31;4951919;28;20441;-70
2022/08/19 05:03:19;;;;;;;28.27;18.15;;;;;;;-140.72;100.00;52520.72;4950921;28;20059;-71
2022/08/19 05:05:48;;;;;;;30.02;18.00;;;;;;;-140.72;100.00;52532.91;4952132;28;20027;-71
2022/08/19 05:08:19;;;;;;;28.35;17.23;;;;;;;-140.72;100.00;52504.50;4952553;28;20409;-72
2022/08/19 05:10:46;;;;;;;34.15;17.67;;;;;;;-140.72;100.00;52573.50;4950770;28;20035;-72
2022/08/19 05:13:12;;;;;;;29.65;16.75;;;;;;;-140.72;100.00;52528.84;4950250;28;20468;-71
2022/08/19 05:15:37;;;;;;;29.85;16.10;;;;;;;-140.72;100.00;52516.66;4948428;28;20042;-70
2022/08/19 05:23:31;;;;;;;25.85;15.90;;;;;;;-140.72;100.00;52524.78;4948369;28;20054;-71
2022/08/19 05:25:56;;;;;;;31.02;16.10;;;;;;;-140.72;100.00;52545.06;4950928;28;20468;-71
2022/08/19 05:28:24;;;;;;;29.50;16.40;;;;;;;-140.72;100.00;52526.81;4948403;28;20038;-72
2022/08/19 05:30:50;;;;;;;24.67;15.65;;;;;;;-140.72;100.00;52492.31;4951087;28;20038;-71
2022/08/19 05:33:16;;;;;;;25.75;17.48;;;;;;;-140.72;100.00;52539.00;4950015;28;20027;-72
2022/08/19 05:35:41;;;;;;;23.38;16.00;;;;;;;-140.72;100.00;52528.84;4951209;28;20451;-72
2022/08/19 05:38:08;;;;;;;28.20;16.67;;;;;;;-140.72;100.00;52543.03;4950237;28;20110;-72
2022/08/19 05:40:38;;;;;;;25.73;17.13;;;;;;;-140.72;100.00;52539.00;4952100;28;20074;-70
2022/08/19 05:43:06;;;;;;;28.80;15.68;;;;;;;-140.72;100.00;52514.63;4945480;28;20460;-67
2022/08/19 05:45:32;;;;;;;32.38;16.77;;;;;;;-140.72;100.00;52512.59;4950438;28;20039;-70
2022/08/19 05:47:58;;;;;;;23.52;15.65;;;;;;;-140.72;100.00;52524.78;4950744;28;20032;-71
2022/08/19 05:50:26;;;;;;;23.48;15.55;;;;;;;-140.72;100.00;52528.84;4950098;28;20125;-70
2022/08/19 05:52:52;;;;;;;31.42;16.75;;;;;;;-140.72;100.00;52530.88;4950631;28;20034;-69
2022/08/19 05:55:19;;;;;;;24.55;13.65;;;;;;;-140.72;100.00;52520.72;4951902;28;20175;-69
2022/08/19 05:57:45;;;;;;;27.02;15.82;;;;;;;-140.72;100.00;52504.50;4951201;28;20066;-70
2022/08/19 06:00:12;;;;;;;25.73;15.25;;;;;;;-140.72;100.00;52534.94;4949601;28;20060;-71
2022/08/19 06:02:37;;;;;;;23.70;16.30;;;;;;;-140.72;100.00;52506.53;4947830;28;20034;-70
2022/08/19 06:05:07;;;;;;;19.58;14.68;;;;;;;-140.72;100.00;52506.53;4951199;28;20035;-69
2022/08/19 06:07:32;;;;;;;23.55;14.98;;;;;;;-140.72;100.00;52524.78;4950602;28;20031;-69
2022/08/19 06:09:58;;;;;;;27.05;16.83;;;;;;;-140.72;100.00;52498.41;4950484;28;20304;-69
2022/08/19 06:12:28;;;;;;;23.27;14.60;;;;;;;-140.72;100.00;52524.78;4951703;28;20085;-70
2022/08/19 06:14:54;;;;;;;21.95;14.00;;;;;;;-140.72;100.00;52524.78;4949756;28;20493;-70
2022/08/19 06:17:22;;;;;;;27.48;15.65;;;;;;;-140.72;100.00;52508.56;4950419;28;20078;-69
2022/08/19 06:19:49;;;;;;;21.25;15.18;;;;;;;-140.72;100.00;52504.50;4949912;28;20027;-70
2022/08/19 06:22:15;;;;;;;25.42;15.35;;;;;;;-140.72;100.00;52522.75;4950632;28;20039;-74
2022/08/19 06:24:41;;;;;;;22.75;15.65;;;;;;;-140.72;100.00;52496.38;4951583;28;20049;-71
2022/08/19 06:27:06;;;;;;;19.35;14.05;;;;;;;-140.72;100.00;52536.97;4946605;28;20463;-71
2022/08/19 06:29:32;;;;;;;23.38;13.88;;;;;;;-140.72;100.00;52514.63;4950956;28;20115;-71
2022/08/19 06:32:00;;;;;;;31.70;15.82;;;;;;;-140.72;100.00;52490.28;4946781;28;20059;-71
2022/08/19 06:34:27;;;;;;;22.13;14.77;;;;;;;-140.72;100.00;52484.19;4952440;28;20063;-71
2022/08/19 06:36:53;;;;;;;19.50;13.15;;;;;;;-140.72;100.00;52484.19;4953782;28;20133;-72
2022/08/19 06:39:23;;;;;;;16.70;12.25;;;;;;;-140.72;100.00;52480.16;4953061;28;20037;-70
2022/08/19 06:41:51;;;;;;;17.52;12.60;;;;;;;-140.72;100.00;52504.50;4953626;28;20539;-71
2022/08/19 06:44:21;;;;;;;18.65;14.07;;;;;;;-140.72;100.00;52492.31;4954413;28;20027;-72
2022/08/19 06:46:48;;;;;;;25.50;14.27;;;;;;;-140.72;100.00;52506.53;4954420;28;20396;-71
2022/08/19 06:49:14;;;;;;;15.93;11.57;;;;;;;-140.72;100.00;52478.13;4952940;28;20505;-72
2022/08/19 06:51:42;;;;;;;15.40;11.40;;;;;;;-140.72;100.00;52451.72;4954052;28;20064;-73
2022/08/19 06:54:07;;;;;;;16.98;12.60;;;;;;;-140.72;100.00;52476.09;4952105;28;20031;-70
2022/08/19 06:56:36;;;;;;;19.58;11.57;;;;;;;-140.72;100.00;52486.22;4953926;28;20372;-71
2022/08/19 06:59:08;;;;;;;15.85;11.80;;;;;;;-140.72;100.00;52467.97;4955028;28;20027;-72
2022/08/19 07:01:41;;;;;;;16.52;10.48;;;;;;;-140.72;100.00;52439.56;4954832;28;20227;-72
2022/08/19 07:04:08;;;;;;;17.83;11.50;;;;;;;-140.72;100.00;52437.53;4952260;28;20052;-72
2022/08/19 07:06:35;;;;;;;18.27;10.82;;;;;;;-140.72;100.00;52411.16;4954036;28;20023;-71
2022/08/19 07:09:00;;;;;;;19.92;11.02;;;;;;;-140.72;100.00;52437.53;4952471;28;20065;-71
2022/08/19 07:11:26;;;;;;;16.02;11.35;;;;;;;-140.72;100.00;52447.69;4952937;28;20121;-71
2022/08/19 07:13:52;;;;;;;18.52;10.93;;;;;;;-140.72;100.00;52433.47;4953415;28;20472;-71
2022/08/19 07:16:19;;;;;;;17.90;12.10;;;;;;;-140.72;100.00;52417.25;4952864;28;20031;-71
2022/08/19 07:18:46;;;;;;;16.58;11.45;;;;;;;-140.72;100.00;52403.03;4954356;28;20388;-71
2022/08/19 07:21:16;;;;;;;13.65;10.93;;;;;;;-140.72;100.00;52407.09;4945460;28;20034;-72
2022/08/19 07:23:42;;;;;;;12.93;9.93;;;;;;;-140.72;100.00;52465.94;4953334;28;20050;-71
2022/08/19 07:26:14;;;;;;;13.55;10.25;;;;;;;-140.72;100.00;52449.72;4945989;29;20035;-72
2022/08/19 07:28:40;;;;;;;17.67;11.15;;;;;;;-140.72;100.00;52429.41;4953995;28;20035;-71
2022/08/19 07:31:18;;;;;;;14.40;11.00;;;;;;;-140.72;100.00;52415.22;4953781;28;20034;-71
2022/08/19 07:33:44;;;;;;;12.80;9.48;;;;;;;-140.72;100.00;52392.88;4950414;29;20361;-71
2022/08/19 07:36:12;;;;;;;12.80;9.30;;;;;;;-140.72;100.00;52427.38;4953696;28;20031;-71
2022/08/19 07:38:40;;;;;;;19.00;12.27;;;;;;;-140.72;100.00;52374.63;4953289;28;20523;-72
2022/08/19 07:41:06;;;;;;;14.38;9.57;;;;;;;-140.72;100.00;52405.06;4953424;28;20046;-72
2022/08/19 07:43:32;;;;;;;15.30;10.60;;;;;;;-140.72;100.00;52370.56;4953984;28;20058;-72
2022/08/19 07:45:58;;;;;;;15.05;10.45;;;;;;;-140.72;100.00;52403.03;4952848;28;20102;-73
2022/08/19 07:48:27;;;;;;;14.80;10.40;;;;;;;-140.72;100.00;52437.53;4953071;28;20031;-72
2022/08/19 07:50:54;;;;;;;16.77;10.10;;;;;;;-140.72;100.00;52411.16;4952214;28;20043;-72
2022/08/19 07:53:24;;;;;;;14.30;10.10;;;;;;;-140.72;100.00;52368.53;4968314;28;20031;-71
2022/08/19 07:55:50;;;;;;;16.20;10.13;;;;;;;-140.72;100.00;52398.97;4949854;28;20034;-71
2022/08/19 07:58:19;;;;;;;14.75;10.55;;;;;;;-140.72;100.00;52398.97;4953669;28;20035;-72
2022/08/19 08:00:47;;;;;;;15.38;10.07;;;;;;;-140.72;100.00;52376.66;4954315;28;20064;-73
2022/08/19 08:03:14;;;;;;;14.18;9.73;;;;;;;-140.72;100.00;52421.28;4950920;28;20023;-72
2022/08/19 08:11:08;;;;;;;15.68;10.35;;;;;;;-140.72;100.00;52396.94;4951489;28;20151;-72
2022/08/19 08:13:35;;;;;;;14.52;9.45;;;;;;;-140.72;100.00;52421.28;4950387;28;20035;-72
2022/08/19 08:16:02;;;;;;;10.70;8.82;;;;;;;-140.72;100.00;52423.31;4955985;28;20113;-72
2022/08/19 08:18:28;;;;;;;12.40;9.20;;;;;;;-140.72;100.00;52364.47;4953919;28;20038;-72
2022/08/19 08:20:57;;;;;;;13.90;9.63;;;;;;;-140.72;100.00;52413.19;4959376;28;20031;-72
2022/08/19 08:23:26;;;;;;;12.95;9.77;;;;;;;-140.72;100.00;52411.16;4952180;28;20027;-71
2022/08/19 08:25:54;;;;;;;14.57;9.97;;;;;;;-140.72;100.00;52376.66;4949967;28;20032;-71
2022/08/19 08:28:21;;;;;;;14.07;8.95;;;;;;;-140.72;100.00;52374.63;4950406;28;20259;-73
2022/08/19 08:30:48;;;;;;;10.68;8.05;;;;;;;-140.72;100.00;52354.34;4953329;28;20383;-72
2022/08/19 08:33:18;;;;;;;16.08;8.80;;;;;;;-140.72;100.00;52372.59;4947101;28;20031;-72
2022/08/19 08:35:45;;;;;;;14.00;8.45;;;;;;;-140.72;100.00;52340.13;4944004;28;20070;-72
2022/08/19 08:38:10;;;;;;;13.68;8.40;;;;;;;-140.72;100.00;52364.47;4943765;28;20035;-72
2022/08/19 08:40:43;;;;;;;14.35;7.78;;;;;;;-140.72;100.00;52313.75;4952482;28;20376;-72
2022/08/19 08:43:21;;;;;;;14.35;7.97;;;;;;;-140.72;100.00;52360.44;4950644;28;20043;-70
2022/08/19 08:46:09;;;;;;;9.50;6.63;;;;;;;-140.72;100.00;52311.72;4946833;29;20038;-71
2022/08/19 08:48:46;;;;;;;10.95;6.90;;;;;;;-140.72;100.00;52364.47;4947525;28;20065;-71
2022/08/19 08:51:18;;;;;;;10.27;7.82;;;;;;;-140.72;100.00;52334.03;4947467;28;20047;-76
2022/08/19 08:53:46;;;;;;;12.40;6.47;;;;;;;-140.72;100.00;52277.22;4950480;28;20058;-70
2022/08/19 08:56:13;;;;;;;13.38;7.53;;;;;;;-140.72;100.00;52275.19;4948352;28;20032;-72
2022/08/19 08:58:50;;;;;;;9.50;6.43;;;;;;;-140.72;100.00;52315.78;4949384;28;20107;-71
2022/08/19 09:01:16;;;;;;;9.40;6.43;;;;;;;-140.72;100.00;52338.09;4949073;28;20129;-72
2022/08/19 09:03:44;;;;;;;8.93;6.03;;;;;;;-140.72;100.00;52311.72;4951217;28;20078;-71
2022/08/19 09:06:26;;;;;;;6.68;5.95;;;;;;;-140.72;100.00;52208.25;4950653;28;20119;-70
2022/08/19 09:09:03;;;;;;;10.05;5.97;;;;;;;-140.72;100.00;52244.78;4944559;29;20074;-72
2022/08/19 09:11:56;;;;;;;7.07;5.32;;;;;;;-140.72;100.00;52198.09;4949131;28;20114;-74
2022/08/19 09:14:27;;;;;;;8.00;5.28;;;;;;;-140.72;100.00;52238.69;4951709;28;20035;-74
2022/08/19 09:16:52;;;;;;;6.38;5.20;;;;;;;-140.72;100.00;52240.72;4950820;28;20031;-74
2022/08/19 09:19:18;;;;;;;8.95;4.28;;;;;;;-140.72;100.00;52159.56;4951016;28;20384;-72
2022/08/19 09:21:45;;;;;;;6.13;4.20;;;;;;;-140.72;100.00;52141.28;4950462;28;20376;-73
2022/08/19 09:24:10;;;;;;;8.38;4.75;;;;;;;-140.72;100.00;52125.06;4949288;28;20035;-73
2022/08/19 09:26:35;;;;;;;7.15;4.10;;;;;;;-140.72;100.00;52149.41;4951133;28;20085;-75
2022/08/19 09:29:04;;;;;;;5.28;3.75;;;;;;;-140.72;100.00;52114.91;4952120;28;20123;-73
2022/08/19 09:31:30;;;;;;;5.65;3.50;;;;;;;-140.72;100.00;52147.38;4951532;28;20038;-67
2022/08/19 09:33:59;;;;;;;6.45;3.83;;;;;;;-140.72;100.00;52151.44;4951352;28;20063;-68
2022/08/19 09:36:28;;;;;;;6.03;3.92;;;;;;;-140.72;100.00;52171.72;4949893;28;20129;-67
2022/08/19 09:38:55;;;;;;;5.57;3.13;;;;;;;-140.72;100.00;52167.66;4950611;28;20031;-68
2022/08/19 09:41:23;;;;;;;5.22;3.55;;;;;;;-140.72;100.00;52155.50;4950988;28;20023;-67
2022/08/19 09:43:52;;;;;;;7.28;2.97;;;;;;;-140.72;100.00;52212.31;4950709;28;20468;-67
2022/08/19 09:46:19;;;;;;;6.53;3.15;;;;;;;-140.72;100.00;52240.72;4950775;28;20039;-68
2022/08/19 09:48:47;;;;;;;5.32;3.40;;;;;;;-140.72;100.00;52287.38;4952247;28;20035;-69
2022/08/19 09:51:15;;;;;;;5.97;3.67;;;;;;;-140.72;100.00;52325.94;4951189;28;20929;-67
2022/08/19 09:53:41;;;;;;;6.68;4.35;;;;;;;-140.72;100.00;52321.88;4952069;28;20032;-68
2022/08/19 09:56:07;;;;;;;8.05;4.93;;;;;;;-140.72;100.00;52368.53;4950538;28;20467;-67
2022/08/19 09:58:33;;;;;;;8.98;4.78;;;;;;;-140.72;100.00;52346.22;4950900;28;20031;-69
2022/08/19 10:01:00;;;;;;;7.45;4.57;;;;;;;-140.72;100.00;52346.22;4951180;28;20460;-70
2022/08/19 10:03:27;;;;;;;10.10;4.82;;;;;;;-140.72;100.00;52368.53;4951492;28;20035;-68
2022/08/19 10:05:53;;;;;;;6.63;4.90;;;;;;;-140.72;100.00;52384.78;4951030;28;20038;-67
2022/08/19 10:08:25;;;;;;;6.07;4.85;;;;;;;-140.72;100.00;52374.63;4953318;28;20031;-68
2022/08/19 10:10:52;;;;;;;6.05;5.13;;;;;;;-140.72;100.00;52405.06;4955198;28;20086;-69
2022/08/19 10:13:24;;;;;;;5.40;4.55;;;;;;;-140.72;100.00;52398.97;4954934;28;20059;-69
2022/08/19 10:15:51;;;;;;;5.90;4.43;;;;;;;-140.72;100.00;52437.53;4955618;28;20042;-68
2022/08/19 10:18:18;;;;;;;9.02;4.30;;;;;;;-140.72;100.00;52366.50;4955787;28;20062;-67
2022/08/19 10:20:45;;;;;;;8.18;4.32;;;;;;;-140.72;100.00;52374.63;4950447;28;20024;-67
2022/08/19 10:23:11;;;;;;;6.80;3.88;;;;;;;-140.72;100.00;52303.59;4947492;29;20035;-69
2022/08/19 10:25:37;;;;;;;4.65;3.55;;;;;;;-140.72;100.00;52364.47;4942218;28;20104;-68
2022/08/19 10:28:03;;;;;;;5.82;3.00;;;;;;;-140.72;100.00;52336.06;4955844;28;20480;-68
2022/08/19 10:30:28;;;;;;;5.07;3.20;;;;;;;-140.72;100.00;52354.34;4954934;28;20050;-69
2022/08/19 10:32:54;;;;;;;6.28;3.00;;;;;;;-140.72;100.00;52350.28;4954663;28;20082;-69
2022/08/19 10:35:20;;;;;;;4.90;3.00;;;;;;;-140.72;100.00;52354.34;4954724;28;20079;-67
2022/08/19 10:37:45;;;;;;;4.25;2.60;;;;;;;-140.72;100.00;52354.34;4955127;28;20142;-68
2022/08/19 10:40:11;;;;;;;4.22;2.58;;;;;;;-140.72;100.00;52309.69;4948646;28;20193;-69
2022/08/19 10:42:37;;;;;;;4.75;1.90;;;;;;;-140.72;100.00;52299.56;4950724;28;20143;-69
2022/08/19 10:45:03;;;;;;;5.53;2.40;;;;;;;-140.72;100.00;52279.25;4955461;29;20039;-68
2022/08/19 10:47:29;;;;;;;4.00;2.28;;;;;;;-140.72;100.00;52185.94;4954105;28;20030;-68
2022/08/19 10:52:45;;;;;;;4.32;1.45;;;;;;;-140.72;100.00;52070.28;4954976;28;20039;-68
2022/08/19 10:57:54;;;;;;;3.03;1.23;;;;;;;-140.72;100.00;52145.34;4944533;29;20040;-68
2022/08/19 11:00:21;;;;;;;2.03;0.80;;;;;;;-140.72;100.00;52179.84;4940291;28;20424;-68
2022/08/19 11:02:46;;;;;;;2.78;0.95;;;;;;;-140.72;100.00;52214.34;4943730;29;20056;-69
2022/08/19 11:05:12;;;;;;;1.38;0.90;;;;;;;-140.72;100.00;52232.59;4954239;28;20341;-67
2022/08/19 11:07:41;;;;;;;2.65;1.02;;;;;;;-140.72;100.00;52267.09;4954766;28;20019;-69
2022/08/19 11:10:08;;;;;;;2.80;1.45;;;;;;;-140.72;100.00;52297.53;4953435;28;20047;-68
2022/08/19 11:12:38;;;;;;;1.85;1.10;;;;;;;-140.72;100.00;52307.66;4954829;28;20027;-68
2022/08/19 11:15:03;;;;;;;;;;;;;;;-140.72;100.00;52321.88;4942052;28;20100;-68
2022/08/19 11:17:31;;;;;;;3.75;1.13;;;;;;;-140.72;100.00;52313.75;4954066;28;19939;-67
2022/08/19 11:19:56;;;;;;;2.92;1.38;;;;;;;-140.72;100.00;52358.41;4953899;28;20056;-67
2022/08/19 11:22:22;;;;;;;4.22;1.73;;;;;;;-140.72;100.00;52372.59;4953583;28;20139;-67
2022/08/19 11:24:47;;;;;;;4.30;1.85;;;;;;;-140.72;100.00;52374.63;4954814;28;20087;-69